sensor_id;sensor_type;location;lat;lon;timestamp;pressure;altitude;pressure_sealevel;temperature;humidity
65394;BME280;52002;49.760;6.512;2023-05-19T00:01:56;100726.54;;;8.83;64.10
65394;BME280;52002;49.760;6.512;2023-05-19T00:04:25;100722.79;;;8.81;64.21
65394;BME280;52002;49.760;6.512;2023-05-19T00:06:52;100719.98;;;8.78;64.42
65394;BME280;52002;49.760;6.512;2023-05-19T00:09:18;100715.53;;;8.75;64.30
65394;BME280;52002;49.760;6.512;2023-05-19T00:11:44;100711.91;;;8.74;64.36
65394;BME280;52002;49.760;6.512;2023-05-19T00:14:10;100716.48;;;8.74;64.48
65394;BME280;52002;49.760;6.512;2023-05-19T00:16:36;100715.23;;;8.77;64.75
65394;BME280;52002;49.760;6.512;2023-05-19T00:19:03;100717.83;;;8.78;64.76
65394;BME280;52002;49.760;6.512;2023-05-19T00:21:30;100716.67;;;8.77;64.69
65394;BME280;52002;49.760;6.512;2023-05-19T00:23:56;100720.13;;;8.76;64.92
65394;BME280;52002;49.760;6.512;2023-05-19T00:26:21;100719.77;;;8.73;64.78
65394;BME280;52002;49.760;6.512;2023-05-19T00:28:52;100719.00;;;8.71;65.00
65394;BME280;52002;49.760;6.512;2023-05-19T00:31:17;100720.38;;;8.72;64.79
65394;BME280;52002;49.760;6.512;2023-05-19T00:33:42;100723.36;;;8.70;64.85
65394;BME280;52002;49.760;6.512;2023-05-19T00:36:08;100727.86;;;8.69;65.08
65394;BME280;52002;49.760;6.512;2023-05-19T00:38:35;100729.52;;;8.68;65.05
65394;BME280;52002;49.760;6.512;2023-05-19T00:41:02;100731.23;;;8.67;65.27
65394;BME280;52002;49.760;6.512;2023-05-19T00:43:28;100730.70;;;8.64;65.27
65394;BME280;52002;49.760;6.512;2023-05-19T00:45:58;100726.98;;;8.58;65.42
65394;BME280;52002;49.760;6.512;2023-05-19T00:48:24;100729.00;;;8.55;65.51
65394;BME280;52002;49.760;6.512;2023-05-19T00:50:58;100725.71;;;8.51;65.67
65394;BME280;52002;49.760;6.512;2023-05-19T00:53:28;100723.86;;;8.50;65.42
65394;BME280;52002;49.760;6.512;2023-05-19T00:55:54;100718.31;;;8.47;65.63
65394;BME280;52002;49.760;6.512;2023-05-19T00:58:19;100716.17;;;8.48;65.69
65394;BME280;52002;49.760;6.512;2023-05-19T01:00:45;100717.58;;;8.48;65.75
65394;BME280;52002;49.760;6.512;2023-05-19T01:03:10;100716.46;;;8.49;65.70
65394;BME280;52002;49.760;6.512;2023-05-19T01:05:45;100719.71;;;8.51;65.79
65394;BME280;52002;49.760;6.512;2023-05-19T01:08:11;100717.52;;;8.49;65.77
65394;BME280;52002;49.760;6.512;2023-05-19T01:10:37;100719.96;;;8.47;65.50
65394;BME280;52002;49.760;6.512;2023-05-19T01:13:03;100724.51;;;8.45;65.82
65394;BME280;52002;49.760;6.512;2023-05-19T01:15:48;100720.83;;;8.42;65.75
65394;BME280;52002;49.760;6.512;2023-05-19T01:18:22;100722.58;;;8.39;66.02
65394;BME280;52002;49.760;6.512;2023-05-19T01:21:32;100725.19;;;8.38;65.70
65394;BME280;52002;49.760;6.512;2023-05-19T01:32:03;100717.81;;;8.18;66.29
65394;BME280;52002;49.760;6.512;2023-05-19T01:34:30;100718.92;;;8.17;66.51
65394;BME280;52002;49.760;6.512;2023-05-19T01:36:59;100715.46;;;8.13;66.49
65394;BME280;52002;49.760;6.512;2023-05-19T01:39:26;100719.95;;;8.13;66.62
65394;BME280;52002;49.760;6.512;2023-05-19T01:41:53;100714.80;;;8.13;66.62
65394;BME280;52002;49.760;6.512;2023-05-19T01:44:19;100713.20;;;8.13;66.75
65394;BME280;52002;49.760;6.512;2023-05-19T01:46:47;100711.70;;;8.12;66.83
65394;BME280;52002;49.760;6.512;2023-05-19T01:49:13;100714.35;;;8.12;66.66
65394;BME280;52002;49.760;6.512;2023-05-19T01:51:39;100713.36;;;8.10;66.87
65394;BME280;52002;49.760;6.512;2023-05-19T01:54:05;100713.03;;;8.10;66.99
65394;BME280;52002;49.760;6.512;2023-05-19T01:56:42;100714.73;;;8.09;66.79
65394;BME280;52002;49.760;6.512;2023-05-19T02:05:17;100713.95;;;7.99;67.12
65394;BME280;52002;49.760;6.512;2023-05-19T02:07:58;100713.12;;;7.95;67.00
65394;BME280;52002;49.760;6.512;2023-05-19T02:10:29;100710.33;;;7.94;67.10
65394;BME280;52002;49.760;6.512;2023-05-19T02:12:57;100708.80;;;7.93;67.37
65394;BME280;52002;49.760;6.512;2023-05-19T02:15:29;100709.29;;;7.94;67.68
65394;BME280;52002;49.760;6.512;2023-05-19T02:17:57;100712.15;;;7.96;67.77
65394;BME280;52002;49.760;6.512;2023-05-19T02:20:24;100718.69;;;7.99;67.70
65394;BME280;52002;49.760;6.512;2023-05-19T02:22:50;100719.88;;;8.00;67.78
65394;BME280;52002;49.760;6.512;2023-05-19T02:25:15;100720.05;;;8.00;67.54
65394;BME280;52002;49.760;6.512;2023-05-19T02:27:41;100724.09;;;7.98;67.35
65394;BME280;52002;49.760;6.512;2023-05-19T02:30:07;100723.58;;;7.95;67.21
65394;BME280;52002;49.760;6.512;2023-05-19T02:32:33;100721.91;;;7.91;67.05
65394;BME280;52002;49.760;6.512;2023-05-19T02:35:01;100719.56;;;7.86;67.10
65394;BME280;52002;49.760;6.512;2023-05-19T02:37:26;100719.58;;;7.81;66.82
65394;BME280;52002;49.760;6.512;2023-05-19T02:39:56;100722.09;;;7.74;67.14
65394;BME280;52002;49.760;6.512;2023-05-19T02:42:22;100718.38;;;7.69;67.22
65394;BME280;52002;49.760;6.512;2023-05-19T02:44:48;100712.38;;;7.63;67.47
65394;BME280;52002;49.760;6.512;2023-05-19T02:47:13;100711.04;;;7.62;67.52
65394;BME280;52002;49.760;6.512;2023-05-19T02:49:39;100714.27;;;7.61;67.62
65394;BME280;52002;49.760;6.512;2023-05-19T02:52:05;100709.00;;;7.60;67.53
65394;BME280;52002;49.760;6.512;2023-05-19T02:54:32;100708.25;;;7.58;67.62
65394;BME280;52002;49.760;6.512;2023-05-19T02:56:58;100708.86;;;7.57;67.85
65394;BME280;52002;49.760;6.512;2023-05-19T02:59:24;100710.63;;;7.57;68.14
65394;BME280;52002;49.760;6.512;2023-05-19T03:01:51;100709.16;;;7.58;68.13
65394;BME280;52002;49.760;6.512;2023-05-19T03:04:17;100706.38;;;7.57;67.89
65394;BME280;52002;49.760;6.512;2023-05-19T03:06:44;100705.07;;;7.55;68.17
65394;BME280;52002;49.760;6.512;2023-05-19T03:09:11;100708.38;;;7.54;68.17
65394;BME280;52002;49.760;6.512;2023-05-19T03:11:38;100707.63;;;7.51;68.31
65394;BME280;52002;49.760;6.512;2023-05-19T03:14:03;100701.41;;;7.49;68.11
65394;BME280;52002;49.760;6.512;2023-05-19T03:16:29;100701.33;;;7.48;68.27
65394;BME280;52002;49.760;6.512;2023-05-19T03:18:54;100702.09;;;7.47;68.30
65394;BME280;52002;49.760;6.512;2023-05-19T03:21:19;100703.20;;;7.47;68.34
65394;BME280;52002;49.760;6.512;2023-05-19T03:23:45;100702.90;;;7.48;68.41
65394;BME280;52002;49.760;6.512;2023-05-19T03:26:11;100706.00;;;7.49;68.05
65394;BME280;52002;49.760;6.512;2023-05-19T03:28:36;100701.83;;;7.49;68.09
65394;BME280;52002;49.760;6.512;2023-05-19T03:31:02;100703.92;;;7.49;68.22
65394;BME280;52002;49.760;6.512;2023-05-19T03:33:27;100705.69;;;7.49;68.54
65394;BME280;52002;49.760;6.512;2023-05-19T03:35:55;100706.25;;;7.49;68.37
65394;BME280;52002;49.760;6.512;2023-05-19T03:38:21;100705.33;;;7.47;68.21
65394;BME280;52002;49.760;6.512;2023-05-19T03:40:46;100705.81;;;7.43;68.24
65394;BME280;52002;49.760;6.512;2023-05-19T03:43:11;100707.56;;;7.41;68.29
65394;BME280;52002;49.760;6.512;2023-05-19T03:45:37;100707.78;;;7.41;68.69
65394;BME280;52002;49.760;6.512;2023-05-19T03:48:02;100710.51;;;7.39;68.56
65394;BME280;52002;49.760;6.512;2023-05-19T03:50:28;100714.69;;;7.38;68.44
65394;BME280;52002;49.760;6.512;2023-05-19T03:52:55;100716.50;;;7.40;68.97
65394;BME280;52002;49.760;6.512;2023-05-19T03:55:21;100716.95;;;7.44;68.92
65394;BME280;52002;49.760;6.512;2023-05-19T03:57:46;100719.71;;;7.45;68.35
65394;BME280;52002;49.760;6.512;2023-05-19T04:00:13;100715.83;;;7.45;68.23
65394;BME280;52002;49.760;6.512;2023-05-19T04:02:38;100717.04;;;7.46;68.38
65394;BME280;52002;49.760;6.512;2023-05-19T04:05:06;100718.41;;;7.47;68.38
65394;BME280;52002;49.760;6.512;2023-05-19T04:07:32;100719.73;;;7.48;68.41
65394;BME280;52002;49.760;6.512;2023-05-19T04:09:58;100717.84;;;7.50;68.00
65394;BME280;52002;49.760;6.512;2023-05-19T04:12:23;100721.42;;;7.52;68.10
65394;BME280;52002;49.760;6.512;2023-05-19T04:14:48;100722.80;;;7.52;68.20
65394;BME280;52002;49.760;6.512;2023-05-19T04:17:14;100722.04;;;7.53;68.48
65394;BME280;52002;49.760;6.512;2023-05-19T04:19:39;100720.45;;;7.56;68.25
65394;BME280;52002;49.760;6.512;2023-05-19T04:22:05;100720.98;;;7.56;68.19
65394;BME280;52002;49.760;6.512;2023-05-19T04:24:30;100721.32;;;7.56;68.07
65394;BME280;52002;49.760;6.512;2023-05-19T04:26:56;100719.63;;;7.58;68.18
65394;BME280;52002;49.760;6.512;2023-05-19T04:29:29;100722.90;;;7.62;67.93
65394;BME280;52002;49.760;6.512;2023-05-19T04:31:54;100720.69;;;7.69;67.75
65394;BME280;52002;49.760;6.512;2023-05-19T04:34:21;100725.92;;;7.75;67.80
65394;BME280;52002;49.760;6.512;2023-05-19T04:36:46;100722.95;;;7.81;67.90
65394;BME280;52002;49.760;6.512;2023-05-19T04:39:13;100721.30;;;7.87;67.68
65394;BME280;52002;49.760;6.512;2023-05-19T04:41:38;100725.41;;;7.94;67.95
65394;BME280;52002;49.760;6.512;2023-05-19T04:44:08;100722.84;;;8.01;67.69
65394;BME280;52002;49.760;6.512;2023-05-19T04:46:34;100727.11;;;8.09;67.76
65394;BME280;52002;49.760;6.512;2023-05-19T04:49:00;100722.32;;;8.14;67.84
65394;BME280;52002;49.760;6.512;2023-05-19T04:51:26;100720.59;;;8.16;67.41
65394;BME280;52002;49.760;6.512;2023-05-19T04:53:56;100721.07;;;8.19;67.57
65394;BME280;52002;49.760;6.512;2023-05-19T04:56:21;100724.68;;;8.27;67.56
65394;BME280;52002;49.760;6.512;2023-05-19T04:58:48;100725.81;;;8.31;67.22
65394;BME280;52002;49.760;6.512;2023-05-19T05:01:13;100727.33;;;8.32;67.46
65394;BME280;52002;49.760;6.512;2023-05-19T05:03:40;100724.42;;;8.38;67.29
65394;BME280;52002;49.760;6.512;2023-05-19T05:06:06;100722.55;;;8.48;67.29
65394;BME280;52002;49.760;6.512;2023-05-19T05:08:31;100725.75;;;8.56;66.89
65394;BME280;52002;49.760;6.512;2023-05-19T05:10:57;100728.38;;;8.64;66.82
65394;BME280;52002;49.760;6.512;2023-05-19T05:13:23;100724.70;;;8.66;66.40
65394;BME280;52002;49.760;6.512;2023-05-19T05:15:50;100722.27;;;8.71;66.44
65394;BME280;52002;49.760;6.512;2023-05-19T05:18:18;100720.46;;;8.76;66.45
65394;BME280;52002;49.760;6.512;2023-05-19T05:20:45;100717.52;;;8.80;66.14
65394;BME280;52002;49.760;6.512;2023-05-19T05:23:11;100715.91;;;8.83;66.02
65394;BME280;52002;49.760;6.512;2023-05-19T05:25:42;100713.74;;;8.91;66.12
65394;BME280;52002;49.760;6.512;2023-05-19T05:28:08;100713.92;;;9.11;65.74
65394;BME280;52002;49.760;6.512;2023-05-19T05:30:34;100715.23;;;10.72;64.11
65394;BME280;52002;49.760;6.512;2023-05-19T05:33:00;100710.84;;;13.99;59.60
65394;BME280;52002;49.760;6.512;2023-05-19T05:35:26;100708.42;;;16.99;55.19
65394;BME280;52002;49.760;6.512;2023-05-19T05:37:52;100713.23;;;19.61;50.39
65394;BME280;52002;49.760;6.512;2023-05-19T05:40:17;100712.31;;;21.66;46.32
65394;BME280;52002;49.760;6.512;2023-05-19T05:42:43;100715.29;;;23.51;43.15
65394;BME280;52002;49.760;6.512;2023-05-19T05:45:08;100716.65;;;25.36;40.35
65394;BME280;52002;49.760;6.512;2023-05-19T05:47:34;100716.59;;;27.03;37.68
65394;BME280;52002;49.760;6.512;2023-05-19T05:50:05;100719.86;;;28.53;35.09
65394;BME280;52002;49.760;6.512;2023-05-19T05:52:31;100716.55;;;29.97;33.32
65394;BME280;52002;49.760;6.512;2023-05-19T05:54:58;100713.43;;;31.52;31.27
65394;BME280;52002;49.760;6.512;2023-05-19T05:57:23;100707.59;;;32.85;29.26
65394;BME280;52002;49.760;6.512;2023-05-19T05:59:49;100710.51;;;33.95;27.12
65394;BME280;52002;49.760;6.512;2023-05-19T06:02:16;100703.88;;;34.91;25.32
65394;BME280;52002;49.760;6.512;2023-05-19T06:04:41;100705.23;;;35.63;24.06
65394;BME280;52002;49.760;6.512;2023-05-19T06:07:08;100702.38;;;36.15;23.05
65394;BME280;52002;49.760;6.512;2023-05-19T06:09:33;100693.79;;;36.83;22.07
65394;BME280;52002;49.760;6.512;2023-05-19T06:11:58;100692.66;;;37.43;21.46
65394;BME280;52002;49.760;6.512;2023-05-19T06:14:24;100695.63;;;38.27;20.42
65394;BME280;52002;49.760;6.512;2023-05-19T06:16:50;100695.04;;;38.70;19.26
65394;BME280;52002;49.760;6.512;2023-05-19T06:19:15;100687.83;;;39.24;18.96
65394;BME280;52002;49.760;6.512;2023-05-19T06:21:40;100690.33;;;39.99;18.47
65394;BME280;52002;49.760;6.512;2023-05-19T06:24:07;100690.33;;;40.51;17.61
65394;BME280;52002;49.760;6.512;2023-05-19T06:26:32;100681.98;;;41.07;17.14
65394;BME280;52002;49.760;6.512;2023-05-19T06:28:58;100679.35;;;41.68;16.66
65394;BME280;52002;49.760;6.512;2023-05-19T06:31:23;100679.17;;;42.15;15.86
65394;BME280;52002;49.760;6.512;2023-05-19T06:33:50;100679.55;;;42.30;15.46
65394;BME280;52002;49.760;6.512;2023-05-19T06:36:16;100677.60;;;42.60;15.19
65394;BME280;52002;49.760;6.512;2023-05-19T06:38:41;100675.31;;;42.54;14.87
65394;BME280;52002;49.760;6.512;2023-05-19T06:41:06;100672.48;;;42.53;14.75
65394;BME280;52002;49.760;6.512;2023-05-19T06:43:32;100669.02;;;42.28;14.60
65394;BME280;52002;49.760;6.512;2023-05-19T06:45:57;100671.63;;;42.19;14.69
65394;BME280;52002;49.760;6.512;2023-05-19T06:48:23;100664.49;;;41.89;14.72
65394;BME280;52002;49.760;6.512;2023-05-19T06:50:48;100664.32;;;41.92;14.60
65394;BME280;52002;49.760;6.512;2023-05-19T06:53:17;100663.49;;;42.47;14.23
65394;BME280;52002;49.760;6.512;2023-05-19T06:55:43;100660.84;;;42.97;14.05
65394;BME280;52002;49.760;6.512;2023-05-19T06:58:08;100665.30;;;43.51;13.58
65394;BME280;52002;49.760;6.512;2023-05-19T07:00:33;100666.31;;;43.74;13.15
65394;BME280;52002;49.760;6.512;2023-05-19T07:02:59;100668.77;;;44.25;13.24
65394;BME280;52002;49.760;6.512;2023-05-19T07:05:24;100671.08;;;44.71;12.54
65394;BME280;52002;49.760;6.512;2023-05-19T07:07:50;100668.69;;;44.80;12.39
65394;BME280;52002;49.760;6.512;2023-05-19T07:10:15;100668.41;;;45.13;12.15
65394;BME280;52002;49.760;6.512;2023-05-19T07:12:41;100663.88;;;45.10;12.12
65394;BME280;52002;49.760;6.512;2023-05-19T07:15:06;100663.67;;;45.07;12.27
65394;BME280;52002;49.760;6.512;2023-05-19T07:17:32;100663.42;;;45.23;12.05
65394;BME280;52002;49.760;6.512;2023-05-19T07:19:57;100662.37;;;45.23;11.86
65394;BME280;52002;49.760;6.512;2023-05-19T07:22:22;100661.46;;;44.88;11.84
65394;BME280;52002;49.760;6.512;2023-05-19T07:24:48;100659.98;;;44.69;11.68
65394;BME280;52002;49.760;6.512;2023-05-19T07:27:14;100663.80;;;44.40;11.64
65394;BME280;52002;49.760;6.512;2023-05-19T07:29:39;100655.90;;;44.08;11.92
65394;BME280;52002;49.760;6.512;2023-05-19T07:32:05;100657.53;;;44.28;11.85
65394;BME280;52002;49.760;6.512;2023-05-19T07:34:30;100659.61;;;44.54;11.86
65394;BME280;52002;49.760;6.512;2023-05-19T07:36:56;100657.38;;;44.55;11.51
65394;BME280;52002;49.760;6.512;2023-05-19T07:39:21;100654.88;;;44.65;11.61
65394;BME280;52002;49.760;6.512;2023-05-19T07:41:49;100653.52;;;44.88;11.54
65394;BME280;52002;49.760;6.512;2023-05-19T07:44:18;100651.36;;;45.19;11.64
65394;BME280;52002;49.760;6.512;2023-05-19T07:46:43;100646.24;;;45.39;11.40
65394;BME280;52002;49.760;6.512;2023-05-19T07:49:08;100640.27;;;45.39;11.38
65394;BME280;52002;49.760;6.512;2023-05-19T07:51:34;100642.67;;;45.14;11.39
65394;BME280;52002;49.760;6.512;2023-05-19T07:53:59;100640.88;;;44.80;11.10
65394;BME280;52002;49.760;6.512;2023-05-19T07:56:25;100639.20;;;44.50;11.27
65394;BME280;52002;49.760;6.512;2023-05-19T07:58:51;100642.50;;;44.45;11.36
65394;BME280;52002;49.760;6.512;2023-05-19T08:01:17;100637.07;;;44.14;11.50
65394;BME280;52002;49.760;6.512;2023-05-19T08:03:42;100633.52;;;43.69;11.52
65394;BME280;52002;49.760;6.512;2023-05-19T08:06:07;100631.88;;;43.61;11.52
65394;BME280;52002;49.760;6.512;2023-05-19T08:08:33;100632.89;;;43.63;11.71
65394;BME280;52002;49.760;6.512;2023-05-19T08:11:04;100626.61;;;43.95;11.80
65394;BME280;52002;49.760;6.512;2023-05-19T08:13:30;100627.94;;;43.87;11.57
65394;BME280;52002;49.760;6.512;2023-05-19T08:15:55;100621.99;;;43.82;11.50
65394;BME280;52002;49.760;6.512;2023-05-19T08:18:24;100624.40;;;43.89;11.55
65394;BME280;52002;49.760;6.512;2023-05-19T08:20:50;100618.39;;;43.64;11.47
65394;BME280;52002;49.760;6.512;2023-05-19T08:23:15;100614.90;;;42.37;12.05
65394;BME280;52002;49.760;6.512;2023-05-19T08:25:42;100611.14;;;41.72;12.51
65394;BME280;52002;49.760;6.512;2023-05-19T08:28:07;100607.73;;;41.97;12.40
65394;BME280;52002;49.760;6.512;2023-05-19T08:30:32;100607.30;;;41.94;12.16
65394;BME280;52002;49.760;6.512;2023-05-19T08:32:58;100598.46;;;41.47;12.73
65394;BME280;52002;49.760;6.512;2023-05-19T08:35:23;100590.52;;;41.20;12.84
65394;BME280;52002;49.760;6.512;2023-05-19T08:37:48;100587.67;;;41.26;12.95
65394;BME280;52002;49.760;6.512;2023-05-19T08:40:17;100581.61;;;40.97;12.93
65394;BME280;52002;49.760;6.512;2023-05-19T08:42:44;100581.09;;;40.13;13.23
65394;BME280;52002;49.760;6.512;2023-05-19T08:45:10;100574.67;;;38.61;14.05
65394;BME280;52002;49.760;6.512;2023-05-19T08:47:35;100570.50;;;36.71;15.37
65394;BME280;52002;49.760;6.512;2023-05-19T08:50:06;100566.66;;;34.92;16.36
65394;BME280;52002;49.760;6.512;2023-05-19T08:55:03;100557.04;;;31.52;18.37
65394;BME280;52002;49.760;6.512;2023-05-19T08:57:30;100557.98;;;29.91;19.51
65394;BME280;52002;49.760;6.512;2023-05-19T08:59:57;100554.41;;;28.47;20.68
65394;BME280;52002;49.760;6.512;2023-05-19T09:02:23;100545.73;;;27.31;21.81
65394;BME280;52002;49.760;6.512;2023-05-19T09:04:49;100548.42;;;26.43;22.99
65394;BME280;52002;49.760;6.512;2023-05-19T09:07:15;100550.45;;;25.58;23.48
65394;BME280;52002;49.760;6.512;2023-05-19T09:09:43;100543.06;;;24.71;24.28
65394;BME280;52002;49.760;6.512;2023-05-19T09:12:12;100548.69;;;23.88;25.12
65394;BME280;52002;49.760;6.512;2023-05-19T09:14:38;100543.25;;;23.22;25.74
65394;BME280;52002;49.760;6.512;2023-05-19T09:17:04;100545.05;;;22.70;26.44
65394;BME280;52002;49.760;6.512;2023-05-19T09:19:31;100553.89;;;22.32;27.19
65394;BME280;52002;49.760;6.512;2023-05-19T09:22:00;100550.64;;;21.96;27.66
65394;BME280;52002;49.760;6.512;2023-05-19T09:24:27;100551.73;;;21.54;28.24
65394;BME280;52002;49.760;6.512;2023-05-19T09:26:54;100548.70;;;21.24;28.86
65394;BME280;52002;49.760;6.512;2023-05-19T09:29:23;100545.82;;;20.97;29.29
65394;BME280;52002;49.760;6.512;2023-05-19T09:31:54;100538.29;;;20.70;29.78
65394;BME280;52002;49.760;6.512;2023-05-19T09:34:24;100540.64;;;20.49;30.11
65394;BME280;52002;49.760;6.512;2023-05-19T09:36:51;100544.29;;;20.31;30.34
65394;BME280;52002;49.760;6.512;2023-05-19T09:39:19;100541.54;;;20.20;30.53
65394;BME280;52002;49.760;6.512;2023-05-19T09:41:45;100539.62;;;20.01;30.22
65394;BME280;52002;49.760;6.512;2023-05-19T09:44:21;100541.64;;;19.82;30.81
65394;BME280;52002;49.760;6.512;2023-05-19T09:46:49;100539.69;;;19.70;30.83
65394;BME280;52002;49.760;6.512;2023-05-19T09:49:22;100537.11;;;19.60;31.45
65394;BME280;52002;49.760;6.512;2023-05-19T09:51:49;100537.79;;;19.55;31.74
65394;BME280;52002;49.760;6.512;2023-05-19T09:54:15;100534.23;;;19.50;31.60
65394;BME280;52002;49.760;6.512;2023-05-19T09:56:40;100524.54;;;19.48;31.79
65394;BME280;52002;49.760;6.512;2023-05-19T09:59:06;100530.52;;;19.49;32.36
65394;BME280;52002;49.760;6.512;2023-05-19T10:01:32;100530.54;;;19.52;32.16
65394;BME280;52002;49.760;6.512;2023-05-19T10:03:58;100529.37;;;19.50;32.06
65394;BME280;52002;49.760;6.512;2023-05-19T10:06:25;100529.40;;;19.42;31.77
65394;BME280;52002;49.760;6.512;2023-05-19T10:08:51;100527.54;;;19.35;31.97
65394;BME280;52002;49.760;6.512;2023-05-19T10:11:17;100522.17;;;19.33;31.90
65394;BME280;52002;49.760;6.512;2023-05-19T10:13:44;100527.53;;;19.35;31.99
65394;BME280;52002;49.760;6.512;2023-05-19T10:16:11;100521.54;;;19.33;31.62
65394;BME280;52002;49.760;6.512;2023-05-19T10:18:36;100520.05;;;19.31;32.01
65394;BME280;52002;49.760;6.512;2023-05-19T10:21:02;100518.02;;;19.36;32.53
65394;BME280;52002;49.760;6.512;2023-05-19T10:23:28;100515.77;;;19.41;32.30
65394;BME280;52002;49.760;6.512;2023-05-19T10:25:56;100511.89;;;19.41;32.11
65394;BME280;52002;49.760;6.512;2023-05-19T10:28:29;100506.67;;;19.38;32.22
65394;BME280;52002;49.760;6.512;2023-05-19T10:30:59;100507.92;;;19.38;32.44
65394;BME280;52002;49.760;6.512;2023-05-19T10:33:40;100496.75;;;19.30;32.58
65394;BME280;52002;49.760;6.512;2023-05-19T10:39:24;100491.68;;;19.25;33.37
65394;BME280;52002;49.760;6.512;2023-05-19T10:42:03;100491.60;;;19.38;33.52
65394;BME280;52002;49.760;6.512;2023-05-19T10:47:23;100478.90;;;19.49;32.79
65394;BME280;52002;49.760;6.512;2023-05-19T10:49:51;100484.91;;;19.52;32.94
65394;BME280;52002;49.760;6.512;2023-05-19T10:52:19;100487.29;;;19.55;33.15
65394;BME280;52002;49.760;6.512;2023-05-19T10:54:49;100484.88;;;19.55;33.39
65394;BME280;52002;49.760;6.512;2023-05-19T10:57:19;100488.25;;;19.64;33.85
65394;BME280;52002;49.760;6.512;2023-05-19T10:59:49;100491.35;;;19.65;33.80
65394;BME280;52002;49.760;6.512;2023-05-19T11:02:40;100489.38;;;19.66;33.78
65394;BME280;52002;49.760;6.512;2023-05-19T11:05:07;100486.84;;;19.66;33.45
65394;BME280;52002;49.760;6.512;2023-05-19T11:07:33;100479.53;;;19.60;33.68
65394;BME280;52002;49.760;6.512;2023-05-19T11:10:04;100483.82;;;19.63;34.02
65394;BME280;52002;49.760;6.512;2023-05-19T11:12:39;100479.35;;;19.70;33.91
65394;BME280;52002;49.760;6.512;2023-05-19T11:15:08;100477.71;;;19.67;34.12
65394;BME280;52002;49.760;6.512;2023-05-19T11:17:34;100485.47;;;19.72;34.30
65394;BME280;52002;49.760;6.512;2023-05-19T11:20:00;100479.84;;;19.72;34.23
65394;BME280;52002;49.760;6.512;2023-05-19T11:22:26;100474.84;;;19.72;34.38
65394;BME280;52002;49.760;6.512;2023-05-19T11:24:56;100477.27;;;19.73;34.28
65394;BME280;52002;49.760;6.512;2023-05-19T11:27:34;100477.16;;;19.76;34.28
65394;BME280;52002;49.760;6.512;2023-05-19T11:32:32;100466.44;;;19.92;34.30
65394;BME280;52002;49.760;6.512;2023-05-19T11:34:58;100461.27;;;20.11;34.17
65394;BME280;52002;49.760;6.512;2023-05-19T11:37:24;100456.55;;;20.20;33.71
65394;BME280;52002;49.760;6.512;2023-05-19T11:39:51;100454.52;;;20.17;34.03
65394;BME280;52002;49.760;6.512;2023-05-19T11:42:17;100453.08;;;20.15;33.94
65394;BME280;52002;49.760;6.512;2023-05-19T11:44:44;100449.67;;;20.26;34.38
65394;BME280;52002;49.760;6.512;2023-05-19T11:47:15;100444.60;;;20.42;34.32
65394;BME280;52002;49.760;6.512;2023-05-19T11:49:47;100445.02;;;20.54;34.40
65394;BME280;52002;49.760;6.512;2023-05-19T11:52:13;100452.64;;;20.40;34.47
65394;BME280;52002;49.760;6.512;2023-05-19T11:54:39;100448.11;;;20.15;34.07
65394;BME280;52002;49.760;6.512;2023-05-19T11:57:07;100441.05;;;20.04;33.83
65394;BME280;52002;49.760;6.512;2023-05-19T11:59:35;100438.73;;;20.05;34.16
65394;BME280;52002;49.760;6.512;2023-05-19T12:02:18;100435.14;;;20.10;34.26
65394;BME280;52002;49.760;6.512;2023-05-19T12:04:44;100432.08;;;20.10;34.22
65394;BME280;52002;49.760;6.512;2023-05-19T12:07:14;100436.58;;;20.00;34.23
65394;BME280;52002;49.760;6.512;2023-05-19T12:09:45;100430.70;;;20.01;34.12
65394;BME280;52002;49.760;6.512;2023-05-19T12:12:18;100426.95;;;20.03;33.93
65394;BME280;52002;49.760;6.512;2023-05-19T12:14:49;100419.77;;;20.13;34.12
65394;BME280;52002;49.760;6.512;2023-05-19T12:17:16;100420.04;;;20.35;34.20
65394;BME280;52002;49.760;6.512;2023-05-19T12:19:44;100420.23;;;20.48;33.97
65394;BME280;52002;49.760;6.512;2023-05-19T12:22:11;100420.30;;;20.44;33.96
65394;BME280;52002;49.760;6.512;2023-05-19T12:24:37;100422.08;;;20.36;33.99
65394;BME280;52002;49.760;6.512;2023-05-19T12:27:18;100419.33;;;20.46;33.94
65394;BME280;52002;49.760;6.512;2023-05-19T12:29:51;100410.76;;;20.57;33.65
65394;BME280;52002;49.760;6.512;2023-05-19T12:32:17;100411.47;;;20.46;33.68
65394;BME280;52002;49.760;6.512;2023-05-19T12:34:43;100409.48;;;20.24;34.04
65394;BME280;52002;49.760;6.512;2023-05-19T12:37:09;100409.66;;;20.08;34.24
65394;BME280;52002;49.760;6.512;2023-05-19T12:39:35;100409.33;;;20.04;34.35
65394;BME280;52002;49.760;6.512;2023-05-19T12:42:07;100403.31;;;20.06;34.03
65394;BME280;52002;49.760;6.512;2023-05-19T12:44:37;100407.25;;;20.15;34.37
65394;BME280;52002;49.760;6.512;2023-05-19T12:47:04;100402.13;;;20.17;34.17
65394;BME280;52002;49.760;6.512;2023-05-19T12:49:31;100402.41;;;20.18;33.97
65394;BME280;52002;49.760;6.512;2023-05-19T12:52:00;100404.25;;;20.22;33.66
65394;BME280;52002;49.760;6.512;2023-05-19T12:54:26;100399.38;;;20.27;33.75
65394;BME280;52002;49.760;6.512;2023-05-19T12:56:51;100400.17;;;20.30;34.02
65394;BME280;52002;49.760;6.512;2023-05-19T12:59:23;100405.95;;;20.29;34.42
65394;BME280;52002;49.760;6.512;2023-05-19T13:01:58;100406.12;;;20.32;34.18
65394;BME280;52002;49.760;6.512;2023-05-19T13:04:24;100401.25;;;20.38;33.80
65394;BME280;52002;49.760;6.512;2023-05-19T13:06:52;100395.70;;;20.49;33.55
65394;BME280;52002;49.760;6.512;2023-05-19T13:09:18;100390.27;;;20.66;33.73
65394;BME280;52002;49.760;6.512;2023-05-19T13:11:45;100390.20;;;20.86;33.61
65394;BME280;52002;49.760;6.512;2023-05-19T13:14:18;100392.56;;;20.76;33.65
65394;BME280;52002;49.760;6.512;2023-05-19T13:16:45;100394.84;;;20.51;33.82
65394;BME280;52002;49.760;6.512;2023-05-19T13:19:16;100395.78;;;20.34;34.09
65394;BME280;52002;49.760;6.512;2023-05-19T13:21:42;100398.02;;;20.24;34.29